Port Republic, Virginia
Current Conditions -  °F | °C
As of 6:35 AM on Thursday 27 Nov 2014 (Local Time) from KSHD Reporting Station
Haze Haze  
Wind Chill: 29°   Ceiling: 100
Heat Index: 29°   Visibility: 0.75mi
Dew Point: 28°   Wind: 0mph
Humidity: 95%   Direction: NA
Pressure: 30.01"   Gusts: NA
Location:  38.3°N, 78.81°W
Report Text: KSHD 271135Z AUTO 00000KT 3/4SM BR OVC001 M01/M02 A3001 RMK AO2 T10151022
Loading
Personal Weather Stations






























Interactive Weather Map New forecast layout! Learn more

10-Day Weather Forecast

Advertisements
Track Severe Weather on mobile